sensor_id;sensor_type;location;lat;lon;timestamp;P1;durP1;ratioP1;P2;durP2;ratioP2
7013;SDS011;3547;50.774;12.918;2023-04-21T00:02:07;7.97;;;5.00;;
7013;SDS011;3547;50.774;12.918;2023-04-21T00:04:33;8.03;;;5.00;;
7013;SDS011;3547;50.774;12.918;2023-04-21T00:07:00;5.77;;;4.30;;
7013;SDS011;3547;50.774;12.918;2023-04-21T00:09:28;10.13;;;5.10;;
7013;SDS011;3547;50.774;12.918;2023-04-21T00:11:54;8.80;;;4.97;;
7013;SDS011;3547;50.774;12.918;2023-04-21T00:14:20;6.53;;;4.87;;
7013;SDS011;3547;50.774;12.918;2023-04-21T00:16:46;6.60;;;4.87;;
7013;SDS011;3547;50.774;12.918;2023-04-21T00:19:17;12.37;;;4.90;;
7013;SDS011;3547;50.774;12.918;2023-04-21T00:21:44;6.07;;;4.83;;
7013;SDS011;3547;50.774;12.918;2023-04-21T00:24:10;6.37;;;4.80;;
7013;SDS011;3547;50.774;12.918;2023-04-21T00:26:37;6.20;;;5.03;;
7013;SDS011;3547;50.774;12.918;2023-04-21T00:29:07;7.17;;;5.07;;
7013;SDS011;3547;50.774;12.918;2023-04-21T00:31:33;7.03;;;5.20;;
7013;SDS011;3547;50.774;12.918;2023-04-21T00:37:19;5.70;;;4.33;;
7013;SDS011;3547;50.774;12.918;2023-04-21T00:39:45;8.50;;;5.40;;
7013;SDS011;3547;50.774;12.918;2023-04-21T00:42:14;6.50;;;4.73;;
7013;SDS011;3547;50.774;12.918;2023-04-21T00:44:41;7.97;;;5.23;;
7013;SDS011;3547;50.774;12.918;2023-04-21T00:47:08;6.37;;;4.80;;
7013;SDS011;3547;50.774;12.918;2023-04-21T00:49:34;5.80;;;5.10;;
7013;SDS011;3547;50.774;12.918;2023-04-21T00:52:00;7.23;;;4.57;;
7013;SDS011;3547;50.774;12.918;2023-04-21T00:54:26;6.63;;;4.67;;
7013;SDS011;3547;50.774;12.918;2023-04-21T00:56:53;7.67;;;4.50;;
7013;SDS011;3547;50.774;12.918;2023-04-21T00:59:20;5.80;;;4.00;;
7013;SDS011;3547;50.774;12.918;2023-04-21T01:01:46;8.00;;;4.43;;
7013;SDS011;3547;50.774;12.918;2023-04-21T01:04:12;6.93;;;5.53;;
7013;SDS011;3547;50.774;12.918;2023-04-21T01:06:38;6.80;;;5.00;;
7013;SDS011;3547;50.774;12.918;2023-04-21T01:09:06;8.07;;;5.50;;
7013;SDS011;3547;50.774;12.918;2023-04-21T01:11:32;8.10;;;4.77;;
7013;SDS011;3547;50.774;12.918;2023-04-21T01:13:58;8.00;;;4.77;;
7013;SDS011;3547;50.774;12.918;2023-04-21T01:16:25;7.93;;;4.27;;
7013;SDS011;3547;50.774;12.918;2023-04-21T01:18:52;7.53;;;4.80;;
7013;SDS011;3547;50.774;12.918;2023-04-21T01:21:21;9.13;;;5.83;;
7013;SDS011;3547;50.774;12.918;2023-04-21T01:23:48;8.83;;;5.53;;
7013;SDS011;3547;50.774;12.918;2023-04-21T01:26:16;10.63;;;4.10;;
7013;SDS011;3547;50.774;12.918;2023-04-21T01:28:51;6.27;;;5.33;;
7013;SDS011;3547;50.774;12.918;2023-04-21T01:31:20;6.33;;;4.57;;
7013;SDS011;3547;50.774;12.918;2023-04-21T01:33:48;8.40;;;5.03;;
7013;SDS011;3547;50.774;12.918;2023-04-21T01:36:15;7.70;;;4.87;;
7013;SDS011;3547;50.774;12.918;2023-04-21T01:38:41;5.90;;;4.20;;
7013;SDS011;3547;50.774;12.918;2023-04-21T01:41:07;7.57;;;4.57;;
7013;SDS011;3547;50.774;12.918;2023-04-21T01:43:34;5.60;;;4.47;;
7013;SDS011;3547;50.774;12.918;2023-04-21T01:46:02;6.43;;;4.57;;
7013;SDS011;3547;50.774;12.918;2023-04-21T01:48:31;5.53;;;4.30;;
7013;SDS011;3547;50.774;12.918;2023-04-21T01:50:57;7.47;;;4.87;;
7013;SDS011;3547;50.774;12.918;2023-04-21T01:53:23;8.30;;;5.43;;
7013;SDS011;3547;50.774;12.918;2023-04-21T01:55:51;7.27;;;4.83;;
7013;SDS011;3547;50.774;12.918;2023-04-21T01:58:17;6.63;;;4.87;;
7013;SDS011;3547;50.774;12.918;2023-04-21T02:00:43;5.30;;;3.80;;
7013;SDS011;3547;50.774;12.918;2023-04-21T02:03:09;7.50;;;4.70;;
7013;SDS011;3547;50.774;12.918;2023-04-21T02:05:36;7.83;;;5.37;;
7013;SDS011;3547;50.774;12.918;2023-04-21T02:08:02;12.63;;;6.23;;
7013;SDS011;3547;50.774;12.918;2023-04-21T02:10:28;7.57;;;4.30;;
7013;SDS011;3547;50.774;12.918;2023-04-21T02:12:54;8.30;;;4.73;;
7013;SDS011;3547;50.774;12.918;2023-04-21T02:15:20;11.53;;;4.50;;
7013;SDS011;3547;50.774;12.918;2023-04-21T02:17:46;5.20;;;4.43;;
7013;SDS011;3547;50.774;12.918;2023-04-21T02:20:12;7.73;;;4.67;;
7013;SDS011;3547;50.774;12.918;2023-04-21T02:22:38;7.83;;;4.60;;
7013;SDS011;3547;50.774;12.918;2023-04-21T02:25:05;6.00;;;4.17;;
7013;SDS011;3547;50.774;12.918;2023-04-21T02:27:31;5.57;;;3.50;;
7013;SDS011;3547;50.774;12.918;2023-04-21T02:29:57;8.40;;;4.03;;
7013;SDS011;3547;50.774;12.918;2023-04-21T02:32:24;6.23;;;4.13;;
7013;SDS011;3547;50.774;12.918;2023-04-21T02:34:50;5.27;;;3.57;;
7013;SDS011;3547;50.774;12.918;2023-04-21T02:37:16;5.87;;;4.10;;
7013;SDS011;3547;50.774;12.918;2023-04-21T02:39:42;7.03;;;4.20;;
7013;SDS011;3547;50.774;12.918;2023-04-21T02:42:09;7.77;;;4.30;;
7013;SDS011;3547;50.774;12.918;2023-04-21T02:44:36;6.30;;;3.90;;
7013;SDS011;3547;50.774;12.918;2023-04-21T02:47:03;7.27;;;4.53;;
7013;SDS011;3547;50.774;12.918;2023-04-21T02:49:29;6.27;;;4.07;;
7013;SDS011;3547;50.774;12.918;2023-04-21T02:51:56;7.17;;;4.83;;
7013;SDS011;3547;50.774;12.918;2023-04-21T02:54:22;12.60;;;4.60;;
7013;SDS011;3547;50.774;12.918;2023-04-21T02:56:59;5.73;;;4.33;;
7013;SDS011;3547;50.774;12.918;2023-04-21T02:59:26;11.87;;;4.90;;
7013;SDS011;3547;50.774;12.918;2023-04-21T03:01:52;5.73;;;4.13;;
7013;SDS011;3547;50.774;12.918;2023-04-21T03:04:18;6.23;;;4.20;;
7013;SDS011;3547;50.774;12.918;2023-04-21T03:06:44;5.47;;;4.00;;
7013;SDS011;3547;50.774;12.918;2023-04-21T03:09:11;8.03;;;4.80;;
7013;SDS011;3547;50.774;12.918;2023-04-21T03:11:37;7.00;;;4.77;;
7013;SDS011;3547;50.774;12.918;2023-04-21T03:14:03;9.70;;;4.63;;
7013;SDS011;3547;50.774;12.918;2023-04-21T03:16:29;6.97;;;4.77;;
7013;SDS011;3547;50.774;12.918;2023-04-21T03:18:55;4.93;;;3.60;;
7013;SDS011;3547;50.774;12.918;2023-04-21T03:21:21;7.90;;;4.30;;
7013;SDS011;3547;50.774;12.918;2023-04-21T03:23:47;9.63;;;4.27;;
7013;SDS011;3547;50.774;12.918;2023-04-21T03:26:14;10.80;;;4.17;;
7013;SDS011;3547;50.774;12.918;2023-04-21T03:28:40;9.23;;;3.57;;
7013;SDS011;3547;50.774;12.918;2023-04-21T03:31:06;7.57;;;4.17;;
7013;SDS011;3547;50.774;12.918;2023-04-21T03:33:33;6.93;;;4.00;;
7013;SDS011;3547;50.774;12.918;2023-04-21T03:35:59;9.93;;;4.73;;
7013;SDS011;3547;50.774;12.918;2023-04-21T03:38:27;7.43;;;4.03;;
7013;SDS011;3547;50.774;12.918;2023-04-21T03:40:55;6.27;;;4.93;;
7013;SDS011;3547;50.774;12.918;2023-04-21T03:43:21;5.67;;;3.73;;
7013;SDS011;3547;50.774;12.918;2023-04-21T03:45:47;5.77;;;3.83;;
7013;SDS011;3547;50.774;12.918;2023-04-21T03:50:50;5.57;;;3.90;;
7013;SDS011;3547;50.774;12.918;2023-04-21T03:53:20;6.43;;;4.07;;
7013;SDS011;3547;50.774;12.918;2023-04-21T03:55:51;6.43;;;4.50;;
7013;SDS011;3547;50.774;12.918;2023-04-21T03:58:17;5.53;;;3.77;;
7013;SDS011;3547;50.774;12.918;2023-04-21T04:00:43;5.27;;;4.20;;
7013;SDS011;3547;50.774;12.918;2023-04-21T04:03:09;8.57;;;5.17;;
7013;SDS011;3547;50.774;12.918;2023-04-21T04:05:37;7.10;;;3.43;;
7013;SDS011;3547;50.774;12.918;2023-04-21T04:08:03;5.97;;;3.97;;
7013;SDS011;3547;50.774;12.918;2023-04-21T04:10:29;5.60;;;4.03;;
7013;SDS011;3547;50.774;12.918;2023-04-21T04:12:55;7.53;;;3.80;;
7013;SDS011;3547;50.774;12.918;2023-04-21T04:15:21;9.00;;;3.70;;
7013;SDS011;3547;50.774;12.918;2023-04-21T04:17:48;4.50;;;3.70;;
7013;SDS011;3547;50.774;12.918;2023-04-21T04:20:15;7.83;;;3.87;;
7013;SDS011;3547;50.774;12.918;2023-04-21T04:22:41;5.50;;;3.30;;
7013;SDS011;3547;50.774;12.918;2023-04-21T04:25:07;6.67;;;3.67;;
7013;SDS011;3547;50.774;12.918;2023-04-21T04:27:34;4.10;;;3.53;;
7013;SDS011;3547;50.774;12.918;2023-04-21T04:30:00;10.13;;;5.10;;
7013;SDS011;3547;50.774;12.918;2023-04-21T04:32:34;6.33;;;4.57;;
7013;SDS011;3547;50.774;12.918;2023-04-21T04:38:43;4.77;;;3.57;;
7013;SDS011;3547;50.774;12.918;2023-04-21T04:41:10;9.57;;;3.50;;
7013;SDS011;3547;50.774;12.918;2023-04-21T04:43:44;8.53;;;3.27;;
7013;SDS011;3547;50.774;12.918;2023-04-21T04:46:24;3.50;;;3.20;;
7013;SDS011;3547;50.774;12.918;2023-04-21T04:48:53;5.27;;;3.60;;
7013;SDS011;3547;50.774;12.918;2023-04-21T04:51:19;8.83;;;3.33;;
7013;SDS011;3547;50.774;12.918;2023-04-21T04:53:45;9.27;;;3.73;;
7013;SDS011;3547;50.774;12.918;2023-04-21T04:56:12;6.60;;;3.30;;
7013;SDS011;3547;50.774;12.918;2023-04-21T04:58:38;5.97;;;3.30;;
7013;SDS011;3547;50.774;12.918;2023-04-21T05:01:11;6.07;;;3.10;;
7013;SDS011;3547;50.774;12.918;2023-04-21T05:03:38;3.43;;;2.83;;
7013;SDS011;3547;50.774;12.918;2023-04-21T05:06:04;4.87;;;3.73;;
7013;SDS011;3547;50.774;12.918;2023-04-21T05:08:31;5.27;;;3.10;;
7013;SDS011;3547;50.774;12.918;2023-04-21T05:10:57;7.30;;;3.13;;
7013;SDS011;3547;50.774;12.918;2023-04-21T05:13:23;5.53;;;3.23;;
7013;SDS011;3547;50.774;12.918;2023-04-21T05:18:44;4.87;;;3.10;;
7013;SDS011;3547;50.774;12.918;2023-04-21T05:21:10;5.47;;;3.43;;
7013;SDS011;3547;50.774;12.918;2023-04-21T05:23:36;3.37;;;2.83;;
7013;SDS011;3547;50.774;12.918;2023-04-21T05:26:03;7.47;;;3.83;;
7013;SDS011;3547;50.774;12.918;2023-04-21T05:28:29;5.27;;;2.87;;
7013;SDS011;3547;50.774;12.918;2023-04-21T05:30:56;4.53;;;3.17;;
7013;SDS011;3547;50.774;12.918;2023-04-21T05:33:22;3.17;;;2.47;;
7013;SDS011;3547;50.774;12.918;2023-04-21T05:35:48;4.33;;;3.03;;
7013;SDS011;3547;50.774;12.918;2023-04-21T05:38:14;3.17;;;2.83;;
7013;SDS011;3547;50.774;12.918;2023-04-21T05:40:40;8.97;;;3.00;;
7013;SDS011;3547;50.774;12.918;2023-04-21T05:43:07;4.47;;;3.13;;
7013;SDS011;3547;50.774;12.918;2023-04-21T05:45:37;6.33;;;2.70;;
7013;SDS011;3547;50.774;12.918;2023-04-21T05:48:04;5.23;;;2.83;;
7013;SDS011;3547;50.774;12.918;2023-04-21T05:50:30;3.57;;;3.07;;
7013;SDS011;3547;50.774;12.918;2023-04-21T05:52:59;8.00;;;3.43;;
7013;SDS011;3547;50.774;12.918;2023-04-21T05:55:28;7.07;;;3.27;;
7013;SDS011;3547;50.774;12.918;2023-04-21T05:57:55;7.10;;;3.17;;
7013;SDS011;3547;50.774;12.918;2023-04-21T06:00:22;5.03;;;3.43;;
7013;SDS011;3547;50.774;12.918;2023-04-21T06:07:59;8.70;;;3.00;;
7013;SDS011;3547;50.774;12.918;2023-04-21T06:10:25;6.73;;;3.03;;
7013;SDS011;3547;50.774;12.918;2023-04-21T06:12:52;5.97;;;2.50;;
7013;SDS011;3547;50.774;12.918;2023-04-21T06:15:18;4.93;;;2.60;;
7013;SDS011;3547;50.774;12.918;2023-04-21T06:17:44;3.37;;;2.53;;
7013;SDS011;3547;50.774;12.918;2023-04-21T06:20:10;3.87;;;2.63;;
7013;SDS011;3547;50.774;12.918;2023-04-21T06:22:38;3.13;;;2.60;;
7013;SDS011;3547;50.774;12.918;2023-04-21T06:25:04;3.47;;;2.83;;
7013;SDS011;3547;50.774;12.918;2023-04-21T06:27:31;7.47;;;2.27;;
7013;SDS011;3547;50.774;12.918;2023-04-21T06:29:57;7.20;;;2.50;;
7013;SDS011;3547;50.774;12.918;2023-04-21T06:32:23;9.00;;;2.70;;
7013;SDS011;3547;50.774;12.918;2023-04-21T06:34:49;3.60;;;2.63;;
7013;SDS011;3547;50.774;12.918;2023-04-21T06:37:15;4.00;;;2.40;;
7013;SDS011;3547;50.774;12.918;2023-04-21T06:39:41;4.73;;;2.47;;
7013;SDS011;3547;50.774;12.918;2023-04-21T06:42:11;5.33;;;2.90;;
7013;SDS011;3547;50.774;12.918;2023-04-21T06:44:37;4.00;;;2.17;;
7013;SDS011;3547;50.774;12.918;2023-04-21T06:47:03;3.23;;;2.30;;
7013;SDS011;3547;50.774;12.918;2023-04-21T06:49:29;13.10;;;2.87;;
7013;SDS011;3547;50.774;12.918;2023-04-21T06:51:55;4.70;;;2.50;;
7013;SDS011;3547;50.774;12.918;2023-04-21T06:54:23;5.87;;;2.67;;
7013;SDS011;3547;50.774;12.918;2023-04-21T06:56:49;7.27;;;2.50;;
7013;SDS011;3547;50.774;12.918;2023-04-21T06:59:16;4.50;;;2.60;;
7013;SDS011;3547;50.774;12.918;2023-04-21T07:01:42;10.03;;;2.67;;
7013;SDS011;3547;50.774;12.918;2023-04-21T07:04:08;4.70;;;2.20;;
7013;SDS011;3547;50.774;12.918;2023-04-21T07:06:34;5.43;;;2.30;;
7013;SDS011;3547;50.774;12.918;2023-04-21T07:09:00;2.90;;;2.23;;
7013;SDS011;3547;50.774;12.918;2023-04-21T07:11:27;2.53;;;2.33;;
7013;SDS011;3547;50.774;12.918;2023-04-21T07:14:11;3.87;;;2.93;;
7013;SDS011;3547;50.774;12.918;2023-04-21T07:16:40;3.73;;;2.20;;
7013;SDS011;3547;50.774;12.918;2023-04-21T07:19:06;2.57;;;2.07;;
7013;SDS011;3547;50.774;12.918;2023-04-21T07:21:34;6.10;;;2.67;;
7013;SDS011;3547;50.774;12.918;2023-04-21T07:24:01;4.43;;;2.50;;
7013;SDS011;3547;50.774;12.918;2023-04-21T07:26:28;6.60;;;2.57;;
7013;SDS011;3547;50.774;12.918;2023-04-21T07:28:54;5.87;;;3.07;;
7013;SDS011;3547;50.774;12.918;2023-04-21T07:31:23;3.63;;;2.47;;
7013;SDS011;3547;50.774;12.918;2023-04-21T07:33:52;5.23;;;2.20;;
7013;SDS011;3547;50.774;12.918;2023-04-21T07:36:18;2.60;;;2.10;;
7013;SDS011;3547;50.774;12.918;2023-04-21T07:38:44;2.53;;;1.83;;
7013;SDS011;3547;50.774;12.918;2023-04-21T07:41:10;3.67;;;2.30;;
7013;SDS011;3547;50.774;12.918;2023-04-21T07:43:40;4.27;;;2.30;;
7013;SDS011;3547;50.774;12.918;2023-04-21T07:46:06;3.80;;;2.13;;
7013;SDS011;3547;50.774;12.918;2023-04-21T07:48:33;4.20;;;1.97;;
7013;SDS011;3547;50.774;12.918;2023-04-21T07:51:00;3.90;;;2.43;;
7013;SDS011;3547;50.774;12.918;2023-04-21T07:53:27;2.73;;;2.50;;
7013;SDS011;3547;50.774;12.918;2023-04-21T07:55:55;3.97;;;2.53;;
7013;SDS011;3547;50.774;12.918;2023-04-21T07:58:21;4.20;;;2.20;;
7013;SDS011;3547;50.774;12.918;2023-04-21T08:00:47;2.43;;;2.20;;
7013;SDS011;3547;50.774;12.918;2023-04-21T08:03:14;3.03;;;2.20;;
7013;SDS011;3547;50.774;12.918;2023-04-21T08:05:40;6.67;;;2.40;;
7013;SDS011;3547;50.774;12.918;2023-04-21T08:08:07;8.73;;;3.15;;
7013;SDS011;3547;50.774;12.918;2023-04-21T08:10:33;6.97;;;2.15;;
7013;SDS011;3547;50.774;12.918;2023-04-21T08:12:59;2.63;;;2.08;;
7013;SDS011;3547;50.774;12.918;2023-04-21T08:15:31;6.00;;;2.08;;
7013;SDS011;3547;50.774;12.918;2023-04-21T08:18:02;4.18;;;2.58;;
7013;SDS011;3547;50.774;12.918;2023-04-21T08:20:28;8.20;;;3.03;;
7013;SDS011;3547;50.774;12.918;2023-04-21T08:22:54;5.70;;;2.65;;
7013;SDS011;3547;50.774;12.918;2023-04-21T08:25:20;3.45;;;2.25;;
7013;SDS011;3547;50.774;12.918;2023-04-21T08:27:48;2.67;;;2.40;;
7013;SDS011;3547;50.774;12.918;2023-04-21T08:30:14;2.97;;;2.67;;
7013;SDS011;3547;50.774;12.918;2023-04-21T08:32:41;5.05;;;2.75;;
7013;SDS011;3547;50.774;12.918;2023-04-21T08:35:07;5.47;;;2.60;;
7013;SDS011;3547;50.774;12.918;2023-04-21T08:37:35;5.30;;;2.80;;
7013;SDS011;3547;50.774;12.918;2023-04-21T08:40:05;6.38;;;2.67;;
7013;SDS011;3547;50.774;12.918;2023-04-21T08:50:45;2.15;;;1.95;;
7013;SDS011;3547;50.774;12.918;2023-04-21T08:53:13;3.22;;;2.40;;
7013;SDS011;3547;50.774;12.918;2023-04-21T08:55:40;2.58;;;2.22;;
7013;SDS011;3547;50.774;12.918;2023-04-21T08:58:07;2.90;;;2.22;;
7013;SDS011;3547;50.774;12.918;2023-04-21T09:00:36;3.72;;;2.50;;
7013;SDS011;3547;50.774;12.918;2023-04-21T09:04:16;5.68;;;2.50;;
7013;SDS011;3547;50.774;12.918;2023-04-21T09:06:43;7.85;;;2.80;;
7013;SDS011;3547;50.774;12.918;2023-04-21T09:09:10;2.75;;;2.00;;
7013;SDS011;3547;50.774;12.918;2023-04-21T09:11:37;3.25;;;2.50;;
7013;SDS011;3547;50.774;12.918;2023-04-21T09:14:03;4.65;;;2.50;;
7013;SDS011;3547;50.774;12.918;2023-04-21T09:16:30;4.50;;;2.25;;
7013;SDS011;3547;50.774;12.918;2023-04-21T09:19:00;4.63;;;2.30;;
7013;SDS011;3547;50.774;12.918;2023-04-21T09:21:35;5.25;;;1.98;;
7013;SDS011;3547;50.774;12.918;2023-04-21T09:24:23;3.47;;;2.53;;
7013;SDS011;3547;50.774;12.918;2023-04-21T09:27:22;5.70;;;2.63;;
7013;SDS011;3547;50.774;12.918;2023-04-21T09:32:37;4.05;;;3.13;;
7013;SDS011;3547;50.774;12.918;2023-04-21T09:35:08;7.80;;;2.75;;
7013;SDS011;3547;50.774;12.918;2023-04-21T09:40:02;2.65;;;2.28;;
7013;SDS011;3547;50.774;12.918;2023-04-21T09:52:54;2.90;;;2.30;;
7013;SDS011;3547;50.774;12.918;2023-04-21T09:55:24;3.00;;;2.60;;
7013;SDS011;3547;50.774;12.918;2023-04-21T09:57:56;2.97;;;2.58;;
7013;SDS011;3547;50.774;12.918;2023-04-21T10:00:25;2.50;;;2.28;;
7013;SDS011;3547;50.774;12.918;2023-04-21T10:03:28;5.93;;;2.90;;
7013;SDS011;3547;50.774;12.918;2023-04-21T10:05:59;3.58;;;2.22;;
7013;SDS011;3547;50.774;12.918;2023-04-21T10:08:25;4.43;;;2.45;;
7013;SDS011;3547;50.774;12.918;2023-04-21T10:10:52;4.35;;;2.65;;
7013;SDS011;3547;50.774;12.918;2023-04-21T10:13:18;2.83;;;2.25;;
7013;SDS011;3547;50.774;12.918;2023-04-21T10:15:46;3.00;;;2.70;;
7013;SDS011;3547;50.774;12.918;2023-04-21T10:21:42;2.92;;;2.67;;
7013;SDS011;3547;50.774;12.918;2023-04-21T10:24:08;4.78;;;2.58;;
7013;SDS011;3547;50.774;12.918;2023-04-21T10:26:44;2.35;;;2.10;;
7013;SDS011;3547;50.774;12.918;2023-04-21T10:29:12;4.35;;;2.55;;
7013;SDS011;3547;50.774;12.918;2023-04-21T10:31:50;3.38;;;2.58;;
7013;SDS011;3547;50.774;12.918;2023-04-21T10:34:18;4.65;;;2.25;;
7013;SDS011;3547;50.774;12.918;2023-04-21T10:39:26;3.17;;;2.75;;
7013;SDS011;3547;50.774;12.918;2023-04-21T10:44:42;5.05;;;3.15;;
7013;SDS011;3547;50.774;12.918;2023-04-21T10:47:27;4.15;;;2.60;;
7013;SDS011;3547;50.774;12.918;2023-04-21T10:49:56;4.55;;;2.47;;
7013;SDS011;3547;50.774;12.918;2023-04-21T10:52:30;9.20;;;3.03;;
7013;SDS011;3547;50.774;12.918;2023-04-21T10:57:32;2.58;;;2.35;;
7013;SDS011;3547;50.774;12.918;2023-04-21T11:00:01;3.03;;;2.33;;
7013;SDS011;3547;50.774;12.918;2023-04-21T11:03:06;4.88;;;2.42;;
7013;SDS011;3547;50.774;12.918;2023-04-21T11:05:39;3.70;;;2.30;;
7013;SDS011;3547;50.774;12.918;2023-04-21T11:23:46;3.13;;;2.70;;
7013;SDS011;3547;50.774;12.918;2023-04-21T11:26:16;3.38;;;2.40;;
7013;SDS011;3547;50.774;12.918;2023-04-21T11:28:46;4.32;;;3.10;;
7013;SDS011;3547;50.774;12.918;2023-04-21T11:31:14;5.22;;;2.75;;
7013;SDS011;3547;50.774;12.918;2023-04-21T11:33:48;8.30;;;2.90;;
7013;SDS011;3547;50.774;12.918;2023-04-21T11:36:15;5.38;;;3.00;;
7013;SDS011;3547;50.774;12.918;2023-04-21T11:38:44;2.42;;;2.22;;
7013;SDS011;3547;50.774;12.918;2023-04-21T11:41:10;5.95;;;2.80;;
7013;SDS011;3547;50.774;12.918;2023-04-21T11:43:37;3.25;;;2.05;;
7013;SDS011;3547;50.774;12.918;2023-04-21T11:46:10;3.03;;;2.50;;
7013;SDS011;3547;50.774;12.918;2023-04-21T11:49:00;2.67;;;2.40;;
7013;SDS011;3547;50.774;12.918;2023-04-21T11:53:59;2.58;;;2.17;;
7013;SDS011;3547;50.774;12.918;2023-04-21T11:56:26;3.63;;;2.33;;
7013;SDS011;3547;50.774;12.918;2023-04-21T11:58:52;2.55;;;2.35;;
7013;SDS011;3547;50.774;12.918;2023-04-21T12:01:19;2.72;;;2.20;;
7013;SDS011;3547;50.774;12.918;2023-04-21T12:03:52;5.40;;;2.47;;
7013;SDS011;3547;50.774;12.918;2023-04-21T12:06:20;2.33;;;2.10;;
7013;SDS011;3547;50.774;12.918;2023-04-21T12:08:59;2.72;;;2.10;;
7013;SDS011;3547;50.774;12.918;2023-04-21T12:11:29;3.58;;;2.22;;
7013;SDS011;3547;50.774;12.918;2023-04-21T12:13:57;2.50;;;2.08;;
7013;SDS011;3547;50.774;12.918;2023-04-21T12:16:24;5.47;;;2.53;;
7013;SDS011;3547;50.774;12.918;2023-04-21T12:18:55;3.00;;;2.30;;
7013;SDS011;3547;50.774;12.918;2023-04-21T12:21:26;2.20;;;1.92;;
7013;SDS011;3547;50.774;12.918;2023-04-21T12:23:53;3.28;;;2.10;;
7013;SDS011;3547;50.774;12.918;2023-04-21T12:26:19;5.25;;;2.53;;
7013;SDS011;3547;50.774;12.918;2023-04-21T12:28:47;2.40;;;2.20;;
7013;SDS011;3547;50.774;12.918;2023-04-21T12:31:13;2.10;;;1.90;;
7013;SDS011;3547;50.774;12.918;2023-04-21T12:33:39;2.45;;;1.88;;
7013;SDS011;3547;50.774;12.918;2023-04-21T12:36:06;4.80;;;2.33;;
7013;SDS011;3547;50.774;12.918;2023-04-21T12:38:33;2.88;;;2.10;;
7013;SDS011;3547;50.774;12.918;2023-04-21T12:40:59;3.05;;;2.38;;
7013;SDS011;3547;50.774;12.918;2023-04-21T12:43:25;2.47;;;1.95;;
7013;SDS011;3547;50.774;12.918;2023-04-21T12:45:51;4.72;;;2.25;;
7013;SDS011;3547;50.774;12.918;2023-04-21T12:48:18;2.22;;;1.88;;
7013;SDS011;3547;50.774;12.918;2023-04-21T12:50:45;1.85;;;1.70;;
7013;SDS011;3547;50.774;12.918;2023-04-21T12:53:11;3.72;;;2.17;;
7013;SDS011;3547;50.774;12.918;2023-04-21T12:55:38;2.38;;;2.10;;
7013;SDS011;3547;50.774;12.918;2023-04-21T12:58:05;2.13;;;1.90;;
7013;SDS011;3547;50.774;12.918;2023-04-21T13:00:31;3.83;;;2.42;;
7013;SDS011;3547;50.774;12.918;2023-04-21T13:03:00;2.53;;;1.75;;
7013;SDS011;3547;50.774;12.918;2023-04-21T13:05:27;2.35;;;2.15;;
7013;SDS011;3547;50.774;12.918;2023-04-21T13:07:53;3.30;;;2.20;;
7013;SDS011;3547;50.774;12.918;2023-04-21T13:10:20;2.92;;;2.30;;
7013;SDS011;3547;50.774;12.918;2023-04-21T13:12:46;3.38;;;2.28;;
7013;SDS011;3547;50.774;12.918;2023-04-21T13:15:12;5.45;;;2.17;;
7013;SDS011;3547;50.774;12.918;2023-04-21T13:17:39;3.75;;;2.28;;
7013;SDS011;3547;50.774;12.918;2023-04-21T13:20:05;3.60;;;2.00;;
7013;SDS011;3547;50.774;12.918;2023-04-21T13:22:32;2.83;;;2.50;;
7013;SDS011;3547;50.774;12.918;2023-04-21T13:25:00;2.15;;;1.98;;
7013;SDS011;3547;50.774;12.918;2023-04-21T13:27:28;2.38;;;2.00;;
7013;SDS011;3547;50.774;12.918;2023-04-21T13:29:55;2.10;;;1.90;;
7013;SDS011;3547;50.774;12.918;2023-04-21T13:32:22;2.13;;;1.92;;
7013;SDS011;3547;50.774;12.918;2023-04-21T13:34:48;2.60;;;1.90;;
7013;SDS011;3547;50.774;12.918;2023-04-21T13:37:14;16.77;;;2.33;;
7013;SDS011;3547;50.774;12.918;2023-04-21T13:39:41;2.28;;;2.08;;
7013;SDS011;3547;50.774;12.918;2023-04-21T13:42:07;2.15;;;1.95;;
7013;SDS011;3547;50.774;12.918;2023-04-21T13:44:34;4.60;;;2.17;;
7013;SDS011;3547;50.774;12.918;2023-04-21T13:47:10;1.73;;;1.50;;
7013;SDS011;3547;50.774;12.918;2023-04-21T13:49:54;2.85;;;1.67;;
7013;SDS011;3547;50.774;12.918;2023-04-21T13:52:21;1.90;;;1.58;;
7013;SDS011;3547;50.774;12.918;2023-04-21T13:54:47;2.13;;;1.88;;
7013;SDS011;3547;50.774;12.918;2023-04-21T13:57:14;2.05;;;1.63;;
7013;SDS011;3547;50.774;12.918;2023-04-21T13:59:40;3.15;;;2.05;;
7013;SDS011;3547;50.774;12.918;2023-04-21T14:02:12;6.47;;;2.10;;
7013;SDS011;3547;50.774;12.918;2023-04-21T14:08:45;2.83;;;1.73;;
7013;SDS011;3547;50.774;12.918;2023-04-21T14:11:12;1.70;;;1.60;;
7013;SDS011;3547;50.774;12.918;2023-04-21T14:13:49;2.45;;;1.58;;
7013;SDS011;3547;50.774;12.918;2023-04-21T14:16:22;2.53;;;1.60;;
7013;SDS011;3547;50.774;12.918;2023-04-21T14:19:05;1.90;;;1.67;;
7013;SDS011;3547;50.774;12.918;2023-04-21T14:21:38;4.63;;;1.55;;
7013;SDS011;3547;50.774;12.918;2023-04-21T14:24:05;3.70;;;1.75;;
7013;SDS011;3547;50.774;12.918;2023-04-21T14:26:34;2.50;;;1.98;;
7013;SDS011;3547;50.774;12.918;2023-04-21T14:29:04;4.38;;;2.00;;
7013;SDS011;3547;50.774;12.918;2023-04-21T14:31:31;2.35;;;1.90;;
7013;SDS011;3547;50.774;12.918;2023-04-21T14:34:05;1.88;;;1.77;;
7013;SDS011;3547;50.774;12.918;2023-04-21T14:36:32;2.47;;;2.03;;
7013;SDS011;3547;50.774;12.918;2023-04-21T14:39:03;2.22;;;1.83;;
7013;SDS011;3547;50.774;12.918;2023-04-21T14:41:42;3.20;;;1.98;;
7013;SDS011;3547;50.774;12.918;2023-04-21T14:44:13;1.92;;;1.83;;
7013;SDS011;3547;50.774;12.918;2023-04-21T14:46:43;4.20;;;2.28;;
7013;SDS011;3547;50.774;12.918;2023-04-21T14:49:10;1.80;;;1.70;;
7013;SDS011;3547;50.774;12.918;2023-04-21T14:51:38;2.20;;;1.98;;
7013;SDS011;3547;50.774;12.918;2023-04-21T14:54:06;2.13;;;1.95;;
7013;SDS011;3547;50.774;12.918;2023-04-21T14:56:35;2.63;;;1.85;;
7013;SDS011;3547;50.774;12.918;2023-04-21T14:59:05;5.10;;;2.65;;
7013;SDS011;3547;50.774;12.918;2023-04-21T15:01:36;2.50;;;2.08;;
7013;SDS011;3547;50.774;12.918;2023-04-21T15:04:02;5.60;;;1.98;;
7013;SDS011;3547;50.774;12.918;2023-04-21T15:06:34;1.77;;;1.67;;
7013;SDS011;3547;50.774;12.918;2023-04-21T15:09:08;2.15;;;1.95;;
7013;SDS011;3547;50.774;12.918;2023-04-21T15:11:34;3.88;;;2.30;;
7013;SDS011;3547;50.774;12.918;2023-04-21T15:14:06;4.85;;;1.92;;
7013;SDS011;3547;50.774;12.918;2023-04-21T15:16:32;2.72;;;1.75;;
7013;SDS011;3547;50.774;12.918;2023-04-21T15:18:58;2.03;;;1.92;;
7013;SDS011;3547;50.774;12.918;2023-04-21T15:21:28;1.95;;;1.83;;
7013;SDS011;3547;50.774;12.918;2023-04-21T15:23:57;6.22;;;2.00;;
7013;SDS011;3547;50.774;12.918;2023-04-21T15:26:23;2.95;;;2.08;;
7013;SDS011;3547;50.774;12.918;2023-04-21T15:28:51;1.90;;;1.70;;
7013;SDS011;3547;50.774;12.918;2023-04-21T15:31:18;4.80;;;2.10;;
7013;SDS011;3547;50.774;12.918;2023-04-21T15:33:45;5.10;;;2.15;;
7013;SDS011;3547;50.774;12.918;2023-04-21T15:36:11;6.45;;;2.08;;
7013;SDS011;3547;50.774;12.918;2023-04-21T15:38:37;2.33;;;2.00;;
7013;SDS011;3547;50.774;12.918;2023-04-21T15:41:04;3.03;;;1.85;;
7013;SDS011;3547;50.774;12.918;2023-04-21T15:43:30;3.65;;;2.70;;
7013;SDS011;3547;50.774;12.918;2023-04-21T15:45:57;7.15;;;2.50;;
7013;SDS011;3547;50.774;12.918;2023-04-21T15:48:24;4.90;;;2.75;;
7013;SDS011;3547;50.774;12.918;2023-04-21T15:50:50;4.80;;;3.33;;
7013;SDS011;3547;50.774;12.918;2023-04-21T15:53:17;5.50;;;3.85;;
7013;SDS011;3547;50.774;12.918;2023-04-21T15:55:43;5.00;;;2.95;;
7013;SDS011;3547;50.774;12.918;2023-04-21T15:58:09;3.67;;;2.20;;
7013;SDS011;3547;50.774;12.918;2023-04-21T16:00:41;2.70;;;2.05;;
7013;SDS011;3547;50.774;12.918;2023-04-21T16:03:08;2.70;;;2.50;;
7013;SDS011;3547;50.774;12.918;2023-04-21T16:05:35;4.28;;;2.80;;
7013;SDS011;3547;50.774;12.918;2023-04-21T16:08:02;3.67;;;2.05;;
7013;SDS011;3547;50.774;12.918;2023-04-21T16:10:30;3.33;;;2.63;;
7013;SDS011;3547;50.774;12.918;2023-04-21T16:12:56;4.10;;;2.63;;
7013;SDS011;3547;50.774;12.918;2023-04-21T16:15:22;3.40;;;2.33;;
7013;SDS011;3547;50.774;12.918;2023-04-21T16:17:49;4.00;;;2.00;;
7013;SDS011;3547;50.774;12.918;2023-04-21T16:20:15;7.07;;;2.33;;
7013;SDS011;3547;50.774;12.918;2023-04-21T16:22:42;7.68;;;2.35;;